sensor_id;sensor_type;location;lat;lon;timestamp;pressure;altitude;pressure_sealevel;temperature;humidity
63351;BME280;64988;51.058;17.040;2022-11-15T00:05:28;100297.66;;;2.44;99.59
63351;BME280;64988;51.058;17.040;2022-11-15T00:11:39;100289.75;;;2.43;99.58
63351;BME280;64988;51.058;17.040;2022-11-15T00:17:51;100281.84;;;2.41;99.71
63351;BME280;64988;51.058;17.040;2022-11-15T00:24:02;100285.41;;;2.40;99.28
63351;BME280;64988;51.058;17.040;2022-11-15T00:30:14;100285.38;;;2.42;99.77
63351;BME280;64988;51.058;17.040;2022-11-15T00:36:26;100276.84;;;2.34;99.26
63351;BME280;64988;51.058;17.040;2022-11-15T00:42:37;100266.19;;;2.34;99.50
63351;BME280;64988;51.058;17.040;2022-11-15T00:48:48;100271.75;;;2.29;99.40
63351;BME280;64988;51.058;17.040;2022-11-15T00:54:59;100257.72;;;2.26;99.78
63351;BME280;64988;51.058;17.040;2022-11-15T01:01:13;100260.75;;;2.17;99.18
63351;BME280;64988;51.058;17.040;2022-11-15T01:07:24;100254.88;;;2.10;99.50
63351;BME280;64988;51.058;17.040;2022-11-15T01:13:36;100254.16;;;2.06;99.32
63351;BME280;64988;51.058;17.040;2022-11-15T01:19:47;100253.88;;;1.92;98.78
63351;BME280;64988;51.058;17.040;2022-11-15T01:26:01;100255.81;;;1.89;98.86
63351;BME280;64988;51.058;17.040;2022-11-15T01:32:14;100253.47;;;1.81;99.09
63351;BME280;64988;51.058;17.040;2022-11-15T01:38:25;100240.19;;;1.81;99.32
63351;BME280;64988;51.058;17.040;2022-11-15T01:44:43;100230.25;;;1.85;99.67
63351;BME280;64988;51.058;17.040;2022-11-15T01:50:57;100215.13;;;1.87;99.63
63351;BME280;64988;51.058;17.040;2022-11-15T01:57:10;100218.84;;;1.83;99.54
63351;BME280;64988;51.058;17.040;2022-11-15T02:03:26;100204.22;;;1.73;99.06
63351;BME280;64988;51.058;17.040;2022-11-15T02:09:44;100196.50;;;1.67;99.32
63351;BME280;64988;51.058;17.040;2022-11-15T02:16:20;100191.22;;;1.65;99.68
63351;BME280;64988;51.058;17.040;2022-11-15T02:35:58;100175.38;;;1.43;99.20
63351;BME280;64988;51.058;17.040;2022-11-15T02:42:24;100182.56;;;1.41;99.39
63351;BME280;64988;51.058;17.040;2022-11-15T02:48:55;100170.19;;;1.40;99.57
63351;BME280;64988;51.058;17.040;2022-11-15T02:55:30;100168.94;;;1.29;99.25
63351;BME280;64988;51.058;17.040;2022-11-15T03:08:12;100153.63;;;1.34;99.49
63351;BME280;64988;51.058;17.040;2022-11-15T03:14:41;100155.41;;;1.33;99.99
63351;BME280;64988;51.058;17.040;2022-11-15T03:20:57;100154.03;;;1.25;100.00
63351;BME280;64988;51.058;17.040;2022-11-15T03:27:12;100145.06;;;1.27;99.60
63351;BME280;64988;51.058;17.040;2022-11-15T03:33:25;100134.09;;;1.35;99.97
63351;BME280;64988;51.058;17.040;2022-11-15T03:39:40;100127.19;;;1.31;99.81
63351;BME280;64988;51.058;17.040;2022-11-15T03:46:00;100124.19;;;1.18;99.33
63351;BME280;64988;51.058;17.040;2022-11-15T03:52:12;100120.66;;;1.18;100.00
63351;BME280;64988;51.058;17.040;2022-11-15T03:58:28;100126.97;;;1.15;99.57
63351;BME280;64988;51.058;17.040;2022-11-15T04:04:39;100128.97;;;1.10;99.77
63351;BME280;64988;51.058;17.040;2022-11-15T04:10:51;100131.84;;;1.05;100.00
63351;BME280;64988;51.058;17.040;2022-11-15T04:17:03;100124.38;;;1.14;100.00
63351;BME280;64988;51.058;17.040;2022-11-15T04:23:18;100124.06;;;1.21;100.00
63351;BME280;64988;51.058;17.040;2022-11-15T04:29:47;100120.63;;;1.19;100.00
63351;BME280;64988;51.058;17.040;2022-11-15T04:35:58;100120.81;;;1.15;100.00
63351;BME280;64988;51.058;17.040;2022-11-15T04:42:28;100106.00;;;1.09;100.00
63351;BME280;64988;51.058;17.040;2022-11-15T04:48:39;100105.44;;;1.01;99.85
63351;BME280;64988;51.058;17.040;2022-11-15T04:54:53;100099.53;;;0.94;99.84
63351;BME280;64988;51.058;17.040;2022-11-15T05:01:11;100093.59;;;0.88;99.81
63351;BME280;64988;51.058;17.040;2022-11-15T05:07:23;100099.44;;;0.76;99.75
63351;BME280;64988;51.058;17.040;2022-11-15T05:13:33;100100.22;;;0.58;99.43
63351;BME280;64988;51.058;17.040;2022-11-15T05:19:45;100091.53;;;0.54;99.33
63351;BME280;64988;51.058;17.040;2022-11-15T05:26:00;100077.81;;;0.43;99.63
63351;BME280;64988;51.058;17.040;2022-11-15T05:32:19;100090.78;;;0.50;99.77
63351;BME280;64988;51.058;17.040;2022-11-15T05:38:31;100090.03;;;0.47;99.67
63351;BME280;64988;51.058;17.040;2022-11-15T05:44:47;100081.28;;;0.45;99.50
63351;BME280;64988;51.058;17.040;2022-11-15T05:51:01;100075.72;;;0.51;99.84
63351;BME280;64988;51.058;17.040;2022-11-15T05:57:13;100081.50;;;0.39;99.78
63351;BME280;64988;51.058;17.040;2022-11-15T06:03:25;100076.19;;;0.39;99.76
63351;BME280;64988;51.058;17.040;2022-11-15T06:09:37;100082.94;;;0.47;99.74
63351;BME280;64988;51.058;17.040;2022-11-15T06:15:48;100087.63;;;0.41;99.75
63351;BME280;64988;51.058;17.040;2022-11-15T06:22:00;100080.78;;;0.57;100.00
63351;BME280;64988;51.058;17.040;2022-11-15T06:28:11;100084.16;;;0.61;99.34
63351;BME280;64988;51.058;17.040;2022-11-15T06:34:22;100076.13;;;0.62;99.18
63351;BME280;64988;51.058;17.040;2022-11-15T06:40:35;100084.31;;;0.78;99.13
63351;BME280;64988;51.058;17.040;2022-11-15T06:46:48;100080.16;;;0.92;99.41
63351;BME280;64988;51.058;17.040;2022-11-15T06:53:01;100080.28;;;1.10;98.91
63351;BME280;64988;51.058;17.040;2022-11-15T06:59:13;100099.06;;;1.45;99.13
63351;BME280;64988;51.058;17.040;2022-11-15T07:05:24;100097.06;;;2.78;99.38
63351;BME280;64988;51.058;17.040;2022-11-15T07:11:35;100095.78;;;4.49;98.57
63351;BME280;64988;51.058;17.040;2022-11-15T07:17:47;100093.84;;;5.70;95.17
63351;BME280;64988;51.058;17.040;2022-11-15T07:23:57;100104.34;;;6.71;92.86
63351;BME280;64988;51.058;17.040;2022-11-15T07:30:09;100106.13;;;7.36;90.59
63351;BME280;64988;51.058;17.040;2022-11-15T07:36:21;100095.94;;;7.79;85.30
63351;BME280;64988;51.058;17.040;2022-11-15T07:42:32;100086.41;;;8.37;84.07
63351;BME280;64988;51.058;17.040;2022-11-15T07:49:02;100077.19;;;9.34;84.52
63351;BME280;64988;51.058;17.040;2022-11-15T07:55:13;100069.09;;;9.91;81.36
63351;BME280;64988;51.058;17.040;2022-11-15T08:01:24;100077.06;;;10.26;74.38
63351;BME280;64988;51.058;17.040;2022-11-15T08:07:36;100076.97;;;10.82;72.97
63351;BME280;64988;51.058;17.040;2022-11-15T08:13:49;100067.78;;;11.26;71.80
63351;BME280;64988;51.058;17.040;2022-11-15T08:20:01;100060.50;;;11.79;69.92
63351;BME280;64988;51.058;17.040;2022-11-15T08:26:13;100062.50;;;11.86;64.85
63351;BME280;64988;51.058;17.040;2022-11-15T08:32:27;100057.94;;;12.07;63.50
63351;BME280;64988;51.058;17.040;2022-11-15T08:38:39;100052.03;;;12.33;61.55
63351;BME280;64988;51.058;17.040;2022-11-15T08:44:50;100052.63;;;12.36;61.81
63351;BME280;64988;51.058;17.040;2022-11-15T08:51:01;100045.84;;;12.71;62.61
63351;BME280;64988;51.058;17.040;2022-11-15T08:57:14;100036.19;;;13.26;60.57
63351;BME280;64988;51.058;17.040;2022-11-15T09:03:27;100040.81;;;13.72;59.18
63351;BME280;64988;51.058;17.040;2022-11-15T09:09:38;100043.38;;;13.83;58.69
63351;BME280;64988;51.058;17.040;2022-11-15T09:15:50;100034.72;;;13.97;59.49
63351;BME280;64988;51.058;17.040;2022-11-15T09:22:04;100040.81;;;13.72;60.52
63351;BME280;64988;51.058;17.040;2022-11-15T09:28:16;100039.47;;;13.29;62.08
63351;BME280;64988;51.058;17.040;2022-11-15T09:34:29;100029.47;;;12.82;62.49
63351;BME280;64988;51.058;17.040;2022-11-15T09:40:40;100027.03;;;12.59;64.06
63351;BME280;64988;51.058;17.040;2022-11-15T10:06:32;100000.09;;;13.06;65.10
63351;BME280;64988;51.058;17.040;2022-11-15T10:12:28;99984.41;;;12.90;65.82
63351;BME280;64988;51.058;17.040;2022-11-15T10:18:47;99989.56;;;13.12;66.39
63351;BME280;64988;51.058;17.040;2022-11-15T10:24:45;99978.28;;;13.07;64.37
63351;BME280;64988;51.058;17.040;2022-11-15T10:30:50;99963.19;;;13.14;65.31
63351;BME280;64988;51.058;17.040;2022-11-15T10:36:58;99960.91;;;12.72;68.34
63351;BME280;64988;51.058;17.040;2022-11-15T10:49:28;99941.78;;;12.25;69.88
63351;BME280;64988;51.058;17.040;2022-11-15T10:55:29;99939.88;;;12.06;70.13
63351;BME280;64988;51.058;17.040;2022-11-15T11:01:25;99938.16;;;11.96;70.76
63351;BME280;64988;51.058;17.040;2022-11-15T11:07:22;99929.72;;;11.89;71.36
63351;BME280;64988;51.058;17.040;2022-11-15T11:13:24;99928.88;;;11.79;71.01
63351;BME280;64988;51.058;17.040;2022-11-15T11:26:01;99916.56;;;11.66;69.65
63351;BME280;64988;51.058;17.040;2022-11-15T11:38:39;99900.13;;;11.88;69.89
63351;BME280;64988;51.058;17.040;2022-11-15T11:44:34;99890.47;;;11.95;69.02
63351;BME280;64988;51.058;17.040;2022-11-15T11:50:28;99882.97;;;12.08;68.92
63351;BME280;64988;51.058;17.040;2022-11-15T11:56:26;99870.13;;;12.20;68.37
63351;BME280;64988;51.058;17.040;2022-11-15T12:02:29;99861.63;;;12.24;66.79
63351;BME280;64988;51.058;17.040;2022-11-15T12:09:02;99853.63;;;12.42;66.63
63351;BME280;64988;51.058;17.040;2022-11-15T12:15:11;99851.75;;;12.52;66.53
63351;BME280;64988;51.058;17.040;2022-11-15T12:21:19;99844.63;;;12.60;66.62
63351;BME280;64988;51.058;17.040;2022-11-15T12:33:43;99817.50;;;12.80;67.85
63351;BME280;64988;51.058;17.040;2022-11-15T12:46:23;99814.72;;;12.99;67.94
63351;BME280;64988;51.058;17.040;2022-11-15T12:52:17;99811.31;;;12.97;67.40
63351;BME280;64988;51.058;17.040;2022-11-15T12:58:27;99802.81;;;12.92;69.30
63351;BME280;64988;51.058;17.040;2022-11-15T13:04:25;99799.97;;;12.84;69.64
63351;BME280;64988;51.058;17.040;2022-11-15T13:16:20;99781.88;;;12.75;71.61
63351;BME280;64988;51.058;17.040;2022-11-15T13:22:13;99775.63;;;12.74;72.09
63351;BME280;64988;51.058;17.040;2022-11-15T13:28:33;99776.06;;;12.70;72.52
63351;BME280;64988;51.058;17.040;2022-11-15T13:34:31;99779.78;;;12.69;73.01
63351;BME280;64988;51.058;17.040;2022-11-15T13:40:43;99767.38;;;12.66;72.96
63351;BME280;64988;51.058;17.040;2022-11-15T13:46:37;99769.38;;;12.64;73.48
63351;BME280;64988;51.058;17.040;2022-11-15T13:52:34;99759.13;;;12.58;73.85
63351;BME280;64988;51.058;17.040;2022-11-15T13:58:29;99756.31;;;12.50;73.94
63351;BME280;64988;51.058;17.040;2022-11-15T14:04:23;99760.34;;;12.36;73.73
63351;BME280;64988;51.058;17.040;2022-11-15T14:10:38;99745.69;;;12.20;74.07
63351;BME280;64988;51.058;17.040;2022-11-15T14:16:38;99742.72;;;12.03;74.67
63351;BME280;64988;51.058;17.040;2022-11-15T14:22:31;99745.25;;;11.86;74.75
63351;BME280;64988;51.058;17.040;2022-11-15T14:34:17;99739.81;;;11.47;75.75
63351;BME280;64988;51.058;17.040;2022-11-15T14:40:14;99727.09;;;11.19;76.80
63351;BME280;64988;51.058;17.040;2022-11-15T14:46:07;99728.44;;;10.85;78.76
63351;BME280;64988;51.058;17.040;2022-11-15T14:52:00;99708.41;;;10.57;79.23
63351;BME280;64988;51.058;17.040;2022-11-15T14:57:53;99711.66;;;10.21;80.87
63351;BME280;64988;51.058;17.040;2022-11-15T15:03:46;99709.81;;;9.89;81.84
63351;BME280;64988;51.058;17.040;2022-11-15T15:09:41;99699.06;;;9.58;82.89
63351;BME280;64988;51.058;17.040;2022-11-15T15:15:36;99698.38;;;9.24;84.05
63351;BME280;64988;51.058;17.040;2022-11-15T15:21:30;99695.34;;;8.95;85.30
63351;BME280;64988;51.058;17.040;2022-11-15T15:27:28;99694.78;;;8.69;85.61
63351;BME280;64988;51.058;17.040;2022-11-15T15:33:23;99689.78;;;8.42;86.59
63351;BME280;64988;51.058;17.040;2022-11-15T15:39:18;99691.19;;;8.13;87.26
63351;BME280;64988;51.058;17.040;2022-11-15T15:45:10;99685.41;;;7.84;87.34
63351;BME280;64988;51.058;17.040;2022-11-15T15:51:03;99690.25;;;7.68;88.85
63351;BME280;64988;51.058;17.040;2022-11-15T15:57:08;99689.81;;;7.51;89.31
63351;BME280;64988;51.058;17.040;2022-11-15T16:03:03;99677.31;;;7.38;90.52
63351;BME280;64988;51.058;17.040;2022-11-15T16:08:56;99674.97;;;7.34;90.46
63351;BME280;64988;51.058;17.040;2022-11-15T16:15:07;99672.81;;;7.15;90.40
63351;BME280;64988;51.058;17.040;2022-11-15T16:21:00;99670.94;;;6.81;90.05
63351;BME280;64988;51.058;17.040;2022-11-15T16:26:53;99675.56;;;6.66;91.68
63351;BME280;64988;51.058;17.040;2022-11-15T16:32:47;99688.16;;;6.41;91.41
63351;BME280;64988;51.058;17.040;2022-11-15T16:38:43;99689.72;;;6.07;91.39
63351;BME280;64988;51.058;17.040;2022-11-15T16:44:35;99692.63;;;5.91;93.03
63351;BME280;64988;51.058;17.040;2022-11-15T16:50:32;99679.22;;;5.91;94.00
63351;BME280;64988;51.058;17.040;2022-11-15T16:56:29;99674.16;;;5.99;95.03
63351;BME280;64988;51.058;17.040;2022-11-15T17:02:25;99670.94;;;6.19;95.97
63351;BME280;64988;51.058;17.040;2022-11-15T17:08:18;99654.44;;;6.13;95.36
63351;BME280;64988;51.058;17.040;2022-11-15T17:14:16;99665.63;;;5.94;94.36
63351;BME280;64988;51.058;17.040;2022-11-15T17:20:16;99657.63;;;5.80;94.67
63351;BME280;64988;51.058;17.040;2022-11-15T17:26:10;99652.16;;;5.69;95.12
63351;BME280;64988;51.058;17.040;2022-11-15T17:32:22;99649.38;;;5.58;95.63
63351;BME280;64988;51.058;17.040;2022-11-15T17:38:15;99654.06;;;5.54;96.42
63351;BME280;64988;51.058;17.040;2022-11-15T17:44:12;99644.00;;;5.45;96.07
63351;BME280;64988;51.058;17.040;2022-11-15T17:50:10;99651.81;;;5.36;96.18
63351;BME280;64988;51.058;17.040;2022-11-15T17:56:03;99646.03;;;5.42;97.11
63351;BME280;64988;51.058;17.040;2022-11-15T18:01:58;99633.84;;;5.50;97.38
63351;BME280;64988;51.058;17.040;2022-11-15T18:07:52;99637.66;;;5.34;97.24
63351;BME280;64988;51.058;17.040;2022-11-15T18:13:45;99635.53;;;5.26;96.64
63351;BME280;64988;51.058;17.040;2022-11-15T18:19:43;99624.84;;;4.99;96.03
63351;BME280;64988;51.058;17.040;2022-11-15T18:25:36;99617.19;;;4.81;96.08
63351;BME280;64988;51.058;17.040;2022-11-15T18:31:30;99622.38;;;4.69;96.54
63351;BME280;64988;51.058;17.040;2022-11-15T18:37:23;99615.19;;;4.84;97.54
63351;BME280;64988;51.058;17.040;2022-11-15T18:43:15;99609.41;;;4.90;97.98
63351;BME280;64988;51.058;17.040;2022-11-15T18:49:08;99616.41;;;4.78;97.40
63351;BME280;64988;51.058;17.040;2022-11-15T18:55:02;99612.94;;;4.64;96.95
63351;BME280;64988;51.058;17.040;2022-11-15T19:01:05;99621.31;;;4.45;96.51
63351;BME280;64988;51.058;17.040;2022-11-15T19:06:58;99621.91;;;4.36;96.53
63351;BME280;64988;51.058;17.040;2022-11-15T19:12:50;99619.13;;;4.38;96.96
63351;BME280;64988;51.058;17.040;2022-11-15T19:18:42;99618.91;;;4.55;97.43
63351;BME280;64988;51.058;17.040;2022-11-15T19:24:35;99605.59;;;4.67;97.38
63351;BME280;64988;51.058;17.040;2022-11-15T19:30:29;99602.41;;;4.75;97.09
63351;BME280;64988;51.058;17.040;2022-11-15T19:36:24;99602.97;;;4.80;96.80
63351;BME280;64988;51.058;17.040;2022-11-15T19:42:21;99603.28;;;4.88;96.44
63351;BME280;64988;51.058;17.040;2022-11-15T19:48:14;99588.50;;;5.09;96.63
63351;BME280;64988;51.058;17.040;2022-11-15T19:54:10;99574.41;;;5.20;96.81
63351;BME280;64988;51.058;17.040;2022-11-15T20:00:04;99552.88;;;5.21;95.85
63351;BME280;64988;51.058;17.040;2022-11-15T20:06:05;99561.47;;;5.26;95.88
63351;BME280;64988;51.058;17.040;2022-11-15T20:11:59;99557.81;;;5.27;95.94
63351;BME280;64988;51.058;17.040;2022-11-15T20:17:52;99554.50;;;5.37;96.19
63351;BME280;64988;51.058;17.040;2022-11-15T20:23:47;99556.22;;;5.50;95.96
63351;BME280;64988;51.058;17.040;2022-11-15T20:29:45;99565.31;;;5.60;96.54
63351;BME280;64988;51.058;17.040;2022-11-15T20:35:42;99553.31;;;5.66;96.12
63351;BME280;64988;51.058;17.040;2022-11-15T20:41:35;99546.25;;;5.77;96.40
63351;BME280;64988;51.058;17.040;2022-11-15T20:47:30;99546.78;;;5.82;95.79
63351;BME280;64988;51.058;17.040;2022-11-15T20:53:23;99534.78;;;5.88;95.21
63351;BME280;64988;51.058;17.040;2022-11-15T20:59:24;99534.13;;;5.72;94.58
63351;BME280;64988;51.058;17.040;2022-11-15T21:05:19;99540.78;;;5.79;95.15
63351;BME280;64988;51.058;17.040;2022-11-15T21:11:13;99543.56;;;5.77;94.60
63351;BME280;64988;51.058;17.040;2022-11-15T21:17:26;99536.50;;;5.76;95.09
63351;BME280;64988;51.058;17.040;2022-11-15T21:23:19;99525.16;;;5.86;95.51
63351;BME280;64988;51.058;17.040;2022-11-15T21:29:12;99516.25;;;5.98;95.69
63351;BME280;64988;51.058;17.040;2022-11-15T21:35:08;99512.28;;;6.03;95.23
63351;BME280;64988;51.058;17.040;2022-11-15T21:41:02;99505.19;;;6.02;95.33
63351;BME280;64988;51.058;17.040;2022-11-15T21:46:55;99499.50;;;6.07;95.62
63351;BME280;64988;51.058;17.040;2022-11-15T21:52:49;99488.81;;;6.07;95.83
63351;BME280;64988;51.058;17.040;2022-11-15T21:58:41;99486.75;;;6.10;95.83
63351;BME280;64988;51.058;17.040;2022-11-15T22:11:39;99477.09;;;6.08;95.98
63351;BME280;64988;51.058;17.040;2022-11-15T22:17:32;99475.63;;;6.04;96.37
63351;BME280;64988;51.058;17.040;2022-11-15T22:23:44;99480.13;;;6.03;96.10
63351;BME280;64988;51.058;17.040;2022-11-15T22:29:38;99479.03;;;6.06;96.61
63351;BME280;64988;51.058;17.040;2022-11-15T22:35:30;99466.97;;;6.00;96.24
63351;BME280;64988;51.058;17.040;2022-11-15T22:41:24;99465.69;;;5.80;94.92
63351;BME280;64988;51.058;17.040;2022-11-15T22:47:18;99474.84;;;5.65;94.71
63351;BME280;64988;51.058;17.040;2022-11-15T22:53:10;99457.28;;;5.61;95.84
63351;BME280;64988;51.058;17.040;2022-11-15T22:59:03;99455.78;;;5.57;95.82
63351;BME280;64988;51.058;17.040;2022-11-15T23:04:55;99444.38;;;5.43;95.75
63351;BME280;64988;51.058;17.040;2022-11-15T23:10:48;99447.69;;;5.34;95.70
63351;BME280;64988;51.058;17.040;2022-11-15T23:16:59;99450.69;;;5.29;95.44
63351;BME280;64988;51.058;17.040;2022-11-15T23:22:52;99453.47;;;5.27;95.86
63351;BME280;64988;51.058;17.040;2022-11-15T23:28:45;99449.28;;;5.23;95.99
63351;BME280;64988;51.058;17.040;2022-11-15T23:34:39;99443.94;;;5.23;95.50
63351;BME280;64988;51.058;17.040;2022-11-15T23:40:32;99443.00;;;5.24;95.75
63351;BME280;64988;51.058;17.040;2022-11-15T23:46:24;99431.53;;;5.35;96.96
63351;BME280;64988;51.058;17.040;2022-11-15T23:52:17;99425.84;;;5.40;96.04
63351;BME280;64988;51.058;17.040;2022-11-15T23:58:10;99427.13;;;5.47;96.34
